createdAt,value
2023-04-17T00:01:19.376Z,15.74
2023-04-17T00:06:22.074Z,15.56
2023-04-17T00:11:26.325Z,15.04
2023-04-17T00:16:29.118Z,15.07
2023-04-17T00:21:32.020Z,15.06
2023-04-17T00:26:36.142Z,15.07
2023-04-17T00:31:38.942Z,14.93
2023-04-17T00:36:42.227Z,15.25
2023-04-17T00:41:46.406Z,15.15
2023-04-17T00:46:49.333Z,15.21
2023-04-17T00:51:52.512Z,14.87
2023-04-17T00:56:57.717Z,15.09
2023-04-17T01:02:02.155Z,15.28
2023-04-17T01:07:05.025Z,15.00
2023-04-17T01:12:20.132Z,14.73
2023-04-17T01:17:26.115Z,15.17
2023-04-17T01:22:29.083Z,14.98
2023-04-17T01:27:36.179Z,14.51
2023-04-17T01:32:39.106Z,14.86
2023-04-17T01:37:41.950Z,14.95
2023-04-17T01:42:46.131Z,15.03
2023-04-17T01:47:48.896Z,15.02
2023-04-17T01:52:51.917Z,14.54
2023-04-17T01:57:56.045Z,14.70
2023-04-17T02:02:58.909Z,14.39
2023-04-17T02:08:01.680Z,14.43
2023-04-17T02:13:05.824Z,14.35
2023-04-17T02:18:09.087Z,14.66
2023-04-17T02:23:12.170Z,14.43
2023-04-17T02:28:16.455Z,14.83
2023-04-17T02:33:19.193Z,14.32
2023-04-17T02:38:22.996Z,14.54
2023-04-17T02:43:27.243Z,14.59
2023-04-17T02:48:30.013Z,14.51
2023-04-17T02:53:32.866Z,14.26
2023-04-17T02:58:37.521Z,14.29
2023-04-17T03:03:43.068Z,14.69
2023-04-17T03:08:48.786Z,14.33
2023-04-17T03:13:53.739Z,14.27
2023-04-17T03:18:57.921Z,14.50
2023-04-17T03:24:00.783Z,14.70
2023-04-17T03:29:05.146Z,14.90
2023-04-17T03:34:08.717Z,14.24
2023-04-17T03:39:12.524Z,14.65
2023-04-17T03:44:17.360Z,13.84
2023-04-17T03:49:21.319Z,14.27
2023-04-17T03:54:25.688Z,14.14
2023-04-17T03:59:32.950Z,14.00
2023-04-17T04:04:36.121Z,13.67
2023-04-17T04:09:46.633Z,13.99
2023-04-17T04:14:51.869Z,14.29
2023-04-17T04:19:55.432Z,14.12
2023-04-17T04:24:59.288Z,14.11
2023-04-17T04:30:15.481Z,14.33
2023-04-17T04:35:19.677Z,14.27
2023-04-17T04:40:24.625Z,13.91
2023-04-17T04:45:28.819Z,13.88
2023-04-17T04:50:33.018Z,13.69
2023-04-17T04:55:36.652Z,14.20
2023-04-17T05:00:41.766Z,14.61
2023-04-17T05:05:50.401Z,14.94
2023-04-17T05:10:55.054Z,15.11
2023-04-17T05:16:01.496Z,14.69
2023-04-17T05:21:05.713Z,15.08
2023-04-17T05:26:09.311Z,15.23
2023-04-17T05:31:13.721Z,15.21
2023-04-17T05:36:18.549Z,15.39
2023-04-17T05:41:22.287Z,15.49
2023-04-17T05:46:26.559Z,15.31
2023-04-17T05:51:29.405Z,15.76
2023-04-17T05:56:32.414Z,15.79
2023-04-17T06:01:36.986Z,15.58
2023-04-17T06:06:39.822Z,16.02
2023-04-17T06:11:42.624Z,16.35
2023-04-17T06:16:47.059Z,16.68
2023-04-17T06:21:52.645Z,17.33
2023-04-17T06:26:56.557Z,17.06
2023-04-17T06:32:00.869Z,18.44
2023-04-17T06:37:03.895Z,19.52
2023-04-17T06:42:07.331Z,20.24
2023-04-17T06:47:16.021Z,21.56
2023-04-17T06:52:20.396Z,22.24
2023-04-17T06:57:23.479Z,23.61
2023-04-17T07:02:27.896Z,23.94
2023-04-17T07:07:30.972Z,27.07
2023-04-17T07:12:34.071Z,28.09
2023-04-17T07:17:38.458Z,29.87
2023-04-17T07:22:41.453Z,29.74
2023-04-17T07:27:44.239Z,30.19
2023-04-17T07:32:48.549Z,27.16
2023-04-17T07:37:51.890Z,27.29
2023-04-17T07:42:56.190Z,28.99
2023-04-17T07:48:00.456Z,29.90
2023-04-17T07:53:03.285Z,27.17
2023-04-17T07:58:06.461Z,27.55
2023-04-17T08:03:10.759Z,25.43
2023-04-17T08:08:13.655Z,25.56
2023-04-17T08:18:20.354Z,20.01
2023-04-17T08:23:23.095Z,18.99
2023-04-17T08:28:26.174Z,19.29
2023-04-17T08:33:30.263Z,19.87
2023-04-17T08:38:32.992Z,19.33
2023-04-17T08:43:37.253Z,19.52
2023-04-17T08:48:41.361Z,19.05
2023-04-17T08:53:44.275Z,19.47
2023-04-17T08:58:47.129Z,19.02
2023-04-17T09:03:52.240Z,19.23
2023-04-17T09:08:57.028Z,18.83
2023-04-17T09:14:01.204Z,18.75
2023-04-17T09:19:07.861Z,19.47
2023-04-17T09:24:10.616Z,19.78
2023-04-17T09:29:14.567Z,19.07
2023-04-17T09:34:20.635Z,18.11
2023-04-17T09:39:24.724Z,18.61
2023-04-17T09:44:29.963Z,19.03
2023-04-17T09:49:40.454Z,19.30
2023-04-17T09:54:44.239Z,19.06
2023-04-17T09:59:49.075Z,19.14
2023-04-17T10:04:55.154Z,19.07
2023-04-17T10:09:58.064Z,19.36
2023-04-17T10:15:01.043Z,18.92
2023-04-17T10:20:44.636Z,19.88
2023-04-17T10:25:47.719Z,20.30
2023-04-17T10:30:52.268Z,20.48
2023-04-17T10:35:59.466Z,20.14
2023-04-17T10:41:04.826Z,19.92
2023-04-17T10:46:11.552Z,20.50
2023-04-17T10:51:43.846Z,19.32
2023-04-17T10:56:48.859Z,19.94
2023-04-17T11:02:04.344Z,19.66
2023-04-17T11:07:08.875Z,19.81
2023-04-17T11:12:13.229Z,20.60
2023-04-17T11:17:16.145Z,19.98
2023-04-17T11:22:22.131Z,19.47
2023-04-17T11:27:24.939Z,19.21
2023-04-17T11:32:27.796Z,19.39
2023-04-17T11:37:31.918Z,18.45
2023-04-17T11:42:34.718Z,18.63
2023-04-17T11:47:37.500Z,19.78
2023-04-17T11:52:41.702Z,19.09
2023-04-17T11:57:44.728Z,18.87
2023-04-17T12:02:47.646Z,18.19
2023-04-17T12:08:04.732Z,18.41
2023-04-17T12:13:08.139Z,18.48
2023-04-17T12:18:10.857Z,18.54
2023-04-17T12:23:14.973Z,18.67
2023-04-17T12:28:17.977Z,18.42
2023-04-17T12:33:20.695Z,18.22
2023-04-17T12:38:24.854Z,18.05
2023-04-17T12:43:27.670Z,18.50
2023-04-17T12:48:32.693Z,18.04
2023-04-17T12:53:37.236Z,18.30
2023-04-17T12:58:40.020Z,18.50
2023-04-17T13:03:42.846Z,18.17
2023-04-17T13:08:47.088Z,17.85
2023-04-17T13:13:49.836Z,17.94
2023-04-17T13:18:52.588Z,17.57
2023-04-17T13:23:56.709Z,18.22
2023-04-17T13:28:59.390Z,17.66
2023-04-17T13:34:02.412Z,17.33
2023-04-17T13:39:06.541Z,17.16
2023-04-17T13:44:09.361Z,16.83
2023-04-17T13:49:12.479Z,17.26
2023-04-17T13:54:16.755Z,17.42
2023-04-17T13:59:19.927Z,17.59
2023-04-17T14:04:23.094Z,17.02
2023-04-17T14:09:27.866Z,17.66
2023-04-17T14:14:30.615Z,17.25
2023-04-17T14:19:33.348Z,17.59
2023-04-17T14:24:37.434Z,17.02
2023-04-17T14:29:40.269Z,16.90
2023-04-17T14:34:43.019Z,16.82
2023-04-17T14:39:47.133Z,17.43
2023-04-17T14:44:50.173Z,17.11
2023-04-17T14:49:52.935Z,16.91
2023-04-17T14:54:57.008Z,16.48
2023-04-17T14:59:59.935Z,16.42
2023-04-17T15:05:02.707Z,16.92
2023-04-17T15:10:07.642Z,16.64
2023-04-17T15:15:11.117Z,16.64
2023-04-17T15:20:13.815Z,16.47
2023-04-17T15:25:18.114Z,16.04
2023-04-17T15:30:20.868Z,16.34
2023-04-17T15:35:23.592Z,15.84
2023-04-17T15:40:27.875Z,15.55
2023-04-17T15:45:38.737Z,15.88
2023-04-17T15:50:41.524Z,15.68
2023-04-17T15:55:44.254Z,15.84
2023-04-17T16:00:48.499Z,15.53
2023-04-17T16:05:52.845Z,15.21
2023-04-17T16:10:56.696Z,15.36
2023-04-17T16:16:00.877Z,15.74
2023-04-17T16:21:04.065Z,15.25
2023-04-17T16:26:07.258Z,14.81
2023-04-17T16:31:12.014Z,14.92
2023-04-17T16:36:15.255Z,14.85
2023-04-17T16:41:18.652Z,14.67
2023-04-17T16:46:35.424Z,14.95
2023-04-17T16:51:47.884Z,14.36
2023-04-17T16:56:50.786Z,14.61
2023-04-17T17:01:54.997Z,13.98
2023-04-17T17:06:57.813Z,14.38
2023-04-17T17:12:00.618Z,14.33
2023-04-17T17:17:04.832Z,13.88
2023-04-17T17:22:07.609Z,14.24
2023-04-17T17:27:10.360Z,13.94
2023-04-17T17:32:16.383Z,14.22
2023-04-17T17:37:19.232Z,13.65
2023-04-17T17:42:22.007Z,13.31
2023-04-17T17:47:26.268Z,13.67
2023-04-17T17:52:29.248Z,13.99
2023-04-17T17:57:45.696Z,13.42
2023-04-17T18:02:52.715Z,13.94
2023-04-17T18:07:55.765Z,12.96
2023-04-17T18:12:58.510Z,13.59
2023-04-17T18:18:02.760Z,13.14
2023-04-17T18:23:05.714Z,13.29
2023-04-17T18:28:08.564Z,12.60
2023-04-17T18:33:12.876Z,12.56
2023-04-17T18:38:17.934Z,12.48
2023-04-17T18:43:23.170Z,12.96
2023-04-17T18:48:28.375Z,12.69
2023-04-17T18:53:31.206Z,12.03
2023-04-17T18:58:33.992Z,12.06
2023-04-17T19:03:38.233Z,11.74
2023-04-17T19:08:41.003Z,11.63
2023-04-17T19:13:45.041Z,11.27
2023-04-17T19:18:49.316Z,11.67
2023-04-17T19:23:52.393Z,12.32
2023-04-17T19:28:55.167Z,12.11
2023-04-17T19:33:59.376Z,12.29
2023-04-17T19:39:02.214Z,12.14
2023-04-17T19:44:05.195Z,11.73
2023-04-17T19:49:09.343Z,12.35
2023-04-17T19:54:15.236Z,12.32
2023-04-17T19:59:18.013Z,12.30
2023-04-17T20:04:22.159Z,11.82
2023-04-17T20:09:25.363Z,12.63
2023-04-17T20:14:28.129Z,12.29
2023-04-17T20:19:33.396Z,12.20
2023-04-17T20:24:36.502Z,12.03
2023-04-17T20:29:39.288Z,12.89
2023-04-17T20:34:43.504Z,12.88
2023-04-17T20:39:46.222Z,12.45
2023-04-17T20:44:49.068Z,12.49
2023-04-17T20:49:56.036Z,13.04
2023-04-17T20:55:00.829Z,13.48
2023-04-17T21:00:04.415Z,12.27
2023-04-17T21:05:09.922Z,12.61
2023-04-17T21:10:12.639Z,12.72
2023-04-17T21:15:15.539Z,13.01
2023-04-17T21:20:19.642Z,12.74
2023-04-17T21:25:22.419Z,12.66
2023-04-17T21:30:27.131Z,13.10
2023-04-17T21:35:31.484Z,12.20
2023-04-17T21:40:36.671Z,12.51
2023-04-17T21:45:39.830Z,12.78
2023-04-17T21:50:43.975Z,12.49
2023-04-17T21:55:46.705Z,13.14
2023-04-17T22:00:49.509Z,12.75
2023-04-17T22:05:55.598Z,12.79
2023-04-17T22:10:58.340Z,12.86
2023-04-17T22:16:01.124Z,12.54
2023-04-17T22:21:06.105Z,12.11
2023-04-17T22:26:08.863Z,12.66
2023-04-17T22:31:11.754Z,12.47
2023-04-17T22:36:16.020Z,12.19
2023-04-17T22:41:18.746Z,12.19
2023-04-17T22:46:21.702Z,12.15
2023-04-17T22:51:29.692Z,12.42
2023-04-17T22:56:32.507Z,11.96
2023-04-17T23:01:35.446Z,11.90
2023-04-17T23:06:39.560Z,12.08
2023-04-17T23:11:42.430Z,11.48
2023-04-17T23:16:45.239Z,12.04
2023-04-17T23:21:49.338Z,12.27
2023-04-17T23:26:52.023Z,11.81
2023-04-17T23:31:54.939Z,11.89
2023-04-17T23:36:59.320Z,11.31
2023-04-17T23:42:06.948Z,11.19
2023-04-17T23:47:10.136Z,11.11
2023-04-17T23:52:14.294Z,11.07
2023-04-17T23:57:18.338Z,11.27
